Time;durP1;ratioP1;P1;durP2;ratioP2;P2;SDS_P1;SDS_P2;PMS_P1;PMS_P2;Temp;Humidity;BMP_temperature;BMP_pressure;BME280_temperature;BME280_humidity;BME280_pressure;Samples;Min_cycle;Max_cycle;Signal;HPM_P1;HPM_P2
2022/07/09 00:00:29;;;;;;;;;;;;;;;-147.11;100.00;61570.13;5021753;28;19949;-53
2022/07/09 00:02:54;;;;;;;;;;;;;;;-147.11;100.00;61570.13;5025653;28;19917;-55
2022/07/09 00:05:20;;;;;;;;;;;;;;;-147.11;100.00;61570.13;5019650;28;20040;-52
2022/07/09 00:07:45;;;;;;;;;;;;;;;-147.11;100.00;61570.13;5014383;28;19917;-56
2022/07/09 00:10:11;;;;;;;;;;;;;;;-147.11;100.00;61570.13;5009142;28;20372;-53
2022/07/09 00:12:36;;;;;;;;;;;;;;;-147.11;100.00;61570.13;5024161;28;19913;-54
2022/07/09 00:15:02;;;;;;;;;;;;;;;-147.11;100.00;61570.13;5006990;28;19940;-56
2022/07/09 00:17:29;;;;;;;;;;;;;;;-147.11;100.00;61570.13;5008708;28;19913;-57
2022/07/09 00:19:55;;;;;;;;;;;;;;;-147.11;100.00;61570.13;5021912;28;19921;-54
2022/07/09 00:22:20;;;;;;;;;;;;;;;-147.11;100.00;61570.13;5021831;28;19974;-55
2022/07/09 00:24:45;;;;;;;;;;;;;;;-147.11;100.00;61570.13;5020668;28;19928;-53
2022/07/09 00:27:11;;;;;;;;;;;;;;;-147.11;100.00;61570.13;5028917;28;19979;-55
2022/07/09 00:29:36;;;;;;;;;;;;;;;-147.11;100.00;61570.13;4993634;28;20027;-57
2022/07/09 00:32:01;;;;;;;;;;;;;;;-147.11;100.00;61570.13;5015273;28;19924;-55
2022/07/09 00:34:27;;;;;;;;;;;;;;;-147.11;100.00;61570.13;5021928;28;19921;-56
2022/07/09 00:36:52;;;;;;;;;;;;;;;-147.11;100.00;61570.13;5017776;28;19917;-55
2022/07/09 00:39:17;;;;;;;;;;;;;;;-147.11;100.00;61570.13;5021309;28;19951;-58
2022/07/09 00:41:42;;;;;;;;;;;;;;;-147.11;100.00;61570.13;5006940;28;19917;-55
2022/07/09 00:44:08;;;;;;;;;;;;;;;-147.11;100.00;61570.13;5010364;28;19925;-57
2022/07/09 00:46:33;;;;;;;;;;;;;;;-147.11;100.00;61570.13;4998778;28;20408;-58
2022/07/09 00:49:03;;;;;;;;;;;;;;;-147.11;100.00;61570.13;5023183;28;19937;-56
2022/07/09 00:51:29;;;;;;;;;;;;;;;-147.11;100.00;61570.13;5003160;28;20012;-56
2022/07/09 00:53:55;;;;;;;;;;;;;;;-147.11;100.00;61570.13;5014229;28;19920;-55
2022/07/09 00:56:20;;;;;;;;;;;;;;;-147.11;100.00;61570.13;5020812;28;20296;-52
2022/07/09 00:58:46;;;;;;;;;;;;;;;-147.11;100.00;61570.13;5022507;28;19925;-54
2022/07/09 01:01:11;;;;;;;;;;;;;;;-147.11;100.00;61570.13;5017250;28;19920;-51
2022/07/09 01:03:37;;;;;;;;;;;;;;;-147.11;100.00;61570.13;5022332;28;19936;-58
2022/07/09 01:06:02;;;;;;;;;;;;;;;-147.11;100.00;61570.13;5021821;28;19925;-52
2022/07/09 01:08:27;;;;;;;;;;;;;;;-147.11;100.00;61570.13;5029355;28;19921;-51
2022/07/09 01:10:53;;;;;;;;;;;;;;;-147.11;100.00;61570.13;5015771;28;20063;-58
2022/07/09 01:13:18;;;;;;;;;;;;;;;-147.11;100.00;61570.13;5020926;28;20015;-53
2022/07/09 01:15:44;;;;;;;;;;;;;;;-147.11;100.00;61570.13;5021760;28;20000;-55
2022/07/09 01:18:10;;;;;;;;;;;;;;;-147.11;100.00;61570.13;5019374;28;19960;-55
2022/07/09 01:20:35;;;;;;;;;;;;;;;-147.11;100.00;61570.13;5011279;28;19920;-53
2022/07/09 01:23:00;;;;;;;;;;;;;;;-147.11;100.00;61570.13;5022302;28;19917;-51
2022/07/09 01:25:36;;;;;;;;;;;;;;;-147.11;100.00;61570.13;5025791;28;20450;-53
2022/07/09 01:28:05;;;;;;;;;;;;;;;-147.11;100.00;61570.13;5027328;28;20404;-57
2022/07/09 01:30:30;;;;;;;;;;;;;;;-147.11;100.00;61570.13;5018475;28;19917;-57
2022/07/09 01:32:55;;;;;;;;;;;;;;;-147.11;100.00;61570.13;5016795;28;19928;-55
2022/07/09 01:35:23;;;;;;;;;;;;;;;-147.11;100.00;61570.13;5014778;28;19925;-52
2022/07/09 01:37:49;;;;;;;;;;;;;;;-147.11;100.00;61570.13;5019668;28;19984;-53
2022/07/09 01:40:15;;;;;;;;;;;;;;;-147.11;100.00;61570.13;5025392;28;19966;-52
2022/07/09 01:42:40;;;;;;;;;;;;;;;-147.11;100.00;61570.13;5020299;28;20388;-52
2022/07/09 01:45:06;;;;;;;;;;;;;;;-147.11;100.00;61570.13;5017692;28;19975;-55
2022/07/09 01:47:31;;;;;;;;;;;;;;;-147.11;100.00;61570.13;5022336;28;20372;-54
2022/07/09 01:49:56;;;;;;;;;;;;;;;-147.11;100.00;61570.13;5014292;28;20019;-55
2022/07/09 01:52:22;;;;;;;;;;;;;;;-147.11;100.00;61570.13;5023822;28;20003;-53
2022/07/09 01:54:47;;;;;;;;;;;;;;;-147.11;100.00;61570.13;5028303;28;19913;-52
2022/07/09 01:57:12;;;;;;;;;;;;;;;-147.11;100.00;61570.13;5015656;28;19990;-55
2022/07/09 01:59:37;;;;;;;;;;;;;;;-147.11;100.00;61570.13;5026050;28;19920;-53
2022/07/09 02:02:03;;;;;;;;;;;;;;;-147.11;100.00;61570.13;5020622;28;19996;-54
2022/07/09 02:04:28;;;;;;;;;;;;;;;-147.11;100.00;61570.13;5008342;28;19921;-51
2022/07/09 02:06:53;;;;;;;;;;;;;;;-147.11;100.00;61570.13;5028040;28;19917;-55
2022/07/09 02:09:19;;;;;;;;;;;;;;;-147.11;100.00;61570.13;5028993;28;19917;-55
2022/07/09 02:11:44;;;;;;;;;;;;;;;-147.11;100.00;61570.13;5021669;28;19983;-58
2022/07/09 02:14:09;;;;;;;;;;;;;;;-147.11;100.00;61570.13;5024433;22;21439;-60
2022/07/09 02:16:35;;;;;;;;;;;;;;;-147.11;100.00;61570.13;4992604;28;20028;-59
2022/07/09 02:19:01;;;;;;;;;;;;;;;-147.11;100.00;61570.13;5001510;28;19964;-61
2022/07/09 02:21:26;;;;;;;;;;;;;;;-147.11;100.00;61570.13;4997519;28;19925;-61
2022/07/09 02:23:56;;;;;;;;;;;;;;;-147.11;100.00;61570.13;5001149;28;20361;-62
2022/07/09 02:26:22;;;;;;;;;;;;;;;-147.11;100.00;61570.13;5001782;28;19925;-62
2022/07/09 02:28:47;;;;;;;;;;;;;;;-147.11;100.00;61570.13;4999982;28;20254;-60
2022/07/09 02:31:12;;;;;;;;;;;;;;;-147.11;100.00;61570.13;4992444;28;19976;-59
2022/07/09 02:33:37;;;;;;;;;;;;;;;-147.11;100.00;61570.13;4999545;28;19928;-61
2022/07/09 02:36:03;;;;;;;;;;;;;;;-147.11;100.00;61570.13;4998234;28;19917;-58
2022/07/09 02:38:29;;;;;;;;;;;;;;;-147.11;100.00;61570.13;5005976;28;20548;-58
2022/07/09 02:40:54;;;;;;;;;;;;;;;-147.11;100.00;61570.13;4998326;28;19918;-60
2022/07/09 02:43:19;;;;;;;;;;;;;;;-147.11;100.00;61570.13;4996286;28;19967;-60
2022/07/09 02:45:45;;;;;;;;;;;;;;;-147.11;100.00;61570.13;4994649;28;20596;-59
2022/07/09 02:48:10;;;;;;;;;;;;;;;-147.11;100.00;61570.13;5002849;28;20023;-59
2022/07/09 02:50:35;;;;;;;;;;;;;;;-147.11;100.00;61570.13;4995497;28;19918;-58
2022/07/09 02:53:00;;;;;;;;;;;;;;;-147.11;100.00;61570.13;4996064;28;19925;-58
2022/07/09 02:55:26;;;;;;;;;;;;;;;-147.11;100.00;61570.13;4999240;28;19957;-58
2022/07/09 02:57:51;;;;;;;;;;;;;;;-147.11;100.00;61570.13;4992965;28;19932;-60
2022/07/09 03:00:16;;;;;;;;;;;;;;;-147.11;100.00;61570.13;5001638;28;19959;-61
2022/07/09 03:02:42;;;;;;;;;;;;;;;-147.11;100.00;61570.13;4997516;28;20308;-60
2022/07/09 03:05:08;;;;;;;;;;;;;;;-147.11;100.00;61570.13;5002673;28;20376;-61
2022/07/09 03:07:33;;;;;;;;;;;;;;;-147.11;100.00;61570.13;5006140;28;19940;-62
2022/07/09 03:09:59;;;;;;;;;;;;;;;-147.11;100.00;61570.13;4999672;28;19918;-59
2022/07/09 03:12:24;;;;;;;;;;;;;;;-147.11;100.00;61570.13;5000971;28;19989;-62
2022/07/09 03:14:49;;;;;;;;;;;;;;;-147.11;100.00;61570.13;4999727;28;19924;-62
2022/07/09 03:17:14;;;;;;;;;;;;;;;-147.11;100.00;61570.13;5002952;28;19927;-62
2022/07/09 03:19:40;;;;;;;;;;;;;;;-147.11;100.00;61570.13;5008475;28;19921;-61
2022/07/09 03:22:05;;;;;;;;;;;;;;;-147.11;100.00;61570.13;5007870;28;19953;-61
2022/07/09 03:24:31;;;;;;;;;;;;;;;-147.11;100.00;61570.13;5000859;28;19991;-58
2022/07/09 03:26:57;;;;;;;;;;;;;;;-147.11;100.00;61570.13;5009804;28;19914;-61
2022/07/09 03:29:22;;;;;;;;;;;;;;;-147.11;100.00;61570.13;5002352;28;19928;-62
2022/07/09 03:31:47;;;;;;;;;;;;;;;-147.11;100.00;61570.13;5005326;28;19927;-60
2022/07/09 03:34:13;;;;;;;;;;;;;;;-147.11;100.00;61570.13;4997598;28;19928;-62
2022/07/09 03:36:38;;;;;;;;;;;;;;;-147.11;100.00;61570.13;4999562;28;19913;-62
2022/07/09 03:39:03;;;;;;;;;;;;;;;-147.11;100.00;61570.13;5007729;28;19913;-61
2022/07/09 03:41:29;;;;;;;;;;;;;;;-147.11;100.00;61570.13;5006790;28;19921;-62
2022/07/09 03:43:54;;;;;;;;;;;;;;;-147.11;100.00;61570.13;5006006;28;19918;-59
2022/07/09 03:46:19;;;;;;;;;;;;;;;-147.11;100.00;61570.13;5002178;28;20301;-62
2022/07/09 03:48:46;;;;;;;;;;;;;;;-147.11;100.00;61570.13;5004877;28;19979;-59
2022/07/09 03:51:11;;;;;;;;;;;;;;;-147.11;100.00;61570.13;5007958;28;19971;-59
2022/07/09 03:53:37;;;;;;;;;;;;;;;-147.11;100.00;61570.13;5002888;28;19933;-62
2022/07/09 03:56:03;;;;;;;;;;;;;;;-147.11;100.00;61570.13;5006618;28;19921;-61
2022/07/09 03:58:28;;;;;;;;;;;;;;;-147.11;100.00;61570.13;5000275;28;20555;-61
2022/07/09 04:00:54;;;;;;;;;;;;;;;-147.11;100.00;61570.13;4998805;28;19926;-60
2022/07/09 04:03:20;;;;;;;;;;;;;;;-147.11;100.00;61570.13;5000423;28;19921;-62
2022/07/09 04:05:45;;;;;;;;;;;;;;;-147.11;100.00;61570.13;5006493;28;20362;-60
2022/07/09 04:08:10;;;;;;;;;;;;;;;-147.11;100.00;61570.13;5002664;28;19987;-61
2022/07/09 04:10:36;;;;;;;;;;;;;;;-147.11;100.00;61570.13;4995133;28;20369;-60
2022/07/09 04:13:01;;;;;;;;;;;;;;;-147.11;100.00;61570.13;5001046;28;19949;-61
2022/07/09 04:15:26;;;;;;;;;;;;;;;-147.11;100.00;61570.13;5000363;28;19964;-62
2022/07/09 04:17:52;;;;;;;;;;;;;;;-147.11;100.00;61570.13;4996395;28;19926;-58
2022/07/09 04:20:17;;;;;;;;;;;;;;;-147.11;100.00;61570.13;5000525;28;19932;-59
2022/07/09 04:22:42;;;;;;;;;;;;;;;-147.11;100.00;61570.13;4996639;28;20335;-58
2022/07/09 04:25:08;;;;;;;;;;;;;;;-147.11;100.00;61570.13;5009689;28;19944;-58
2022/07/09 04:27:35;;;;;;;;;;;;;;;-147.11;100.00;61570.13;5004368;28;19922;-61
2022/07/09 04:30:01;;;;;;;;;;;;;;;-147.11;100.00;61570.13;5002239;28;20365;-61
2022/07/09 04:32:26;;;;;;;;;;;;;;;-147.11;100.00;61570.13;4994367;28;19919;-59
2022/07/09 04:34:51;;;;;;;;;;;;;;;-147.11;100.00;61570.13;4996552;28;19933;-60
2022/07/09 04:37:17;;;;;;;;;;;;;;;-147.11;100.00;61570.13;4996602;28;19917;-62
2022/07/09 04:39:42;;;;;;;;;;;;;;;-147.11;100.00;61570.13;4994424;28;19918;-61
2022/07/09 04:42:09;;;;;;;;;;;;;;;-147.11;100.00;61570.13;4998655;28;19951;-61
2022/07/09 04:44:34;;;;;;;;;;;;;;;-147.11;100.00;61570.13;5002543;28;19918;-60
2022/07/09 04:46:59;;;;;;;;;;;;;;;-147.11;100.00;61570.13;4996349;28;19979;-61
2022/07/09 04:49:25;;;;;;;;;;;;;;;-147.11;100.00;61570.13;4999249;28;19945;-61
2022/07/09 04:51:51;;;;;;;;;;;;;;;-147.11;100.00;61570.13;4994749;28;19917;-62
2022/07/09 04:54:16;;;;;;;;;;;;;;;-147.11;100.00;61570.13;4984000;28;19921;-62
2022/07/09 04:56:41;;;;;;;;;;;;;;;-147.11;100.00;61570.13;4993675;28;20437;-61
2022/07/09 04:59:06;;;;;;;;;;;;;;;-147.11;100.00;61570.13;4993784;28;20120;-62
2022/07/09 05:01:32;;;;;;;;;;;;;;;-147.11;100.00;61570.13;4997416;28;19924;-61
2022/07/09 05:03:58;;;;;;;;;;;;;;;-147.11;100.00;61570.13;4993697;28;19980;-62
2022/07/09 05:06:24;;;;;;;;;;;;;;;-147.11;100.00;61570.13;4997752;28;19960;-61
2022/07/09 05:08:49;;;;;;;;;;;;;;;-147.11;100.00;61570.13;4994608;28;20000;-62
2022/07/09 05:11:14;;;;;;;;;;;;;;;-147.11;100.00;61570.13;4994247;28;19936;-61
2022/07/09 05:13:40;;;;;;;;;;;;;;;-147.11;100.00;61570.13;5001285;28;19909;-62
2022/07/09 05:16:05;;;;;;;;;;;;;;;-147.11;100.00;61570.13;4997454;28;19936;-61
2022/07/09 05:18:31;;;;;;;;;;;;;;;-147.11;100.00;61570.13;4997584;28;20288;-60
2022/07/09 05:20:56;;;;;;;;;;;;;;;-147.11;100.00;61570.13;4992070;28;20092;-61
2022/07/09 05:23:22;;;;;;;;;;;;;;;-147.11;100.00;61570.13;4997302;28;19953;-62
2022/07/09 05:25:47;;;;;;;;;;;;;;;-147.11;100.00;61570.13;4996145;28;20012;-58
2022/07/09 05:28:12;;;;;;;;;;;;;;;-147.11;100.00;61570.13;4996272;28;20832;-62
2022/07/09 05:30:38;;;;;;;;;;;;;;;-147.11;100.00;61570.13;4991015;28;20008;-61
2022/07/09 05:33:04;;;;;;;;;;;;;;;-147.11;100.00;61570.13;4995008;28;19921;-61
2022/07/09 05:35:29;;;;;;;;;;;;;;;-147.11;100.00;61570.13;4994397;28;20360;-62
2022/07/09 05:37:54;;;;;;;;;;;;;;;-147.11;100.00;61570.13;5000331;28;19928;-58
2022/07/09 05:40:20;;;;;;;;;;;;;;;-147.11;100.00;61570.13;4993707;28;20308;-60
2022/07/09 05:42:46;;;;;;;;;;;;;;;-147.11;100.00;61570.13;5000810;28;20328;-58
2022/07/09 05:45:11;;;;;;;;;;;;;;;-147.11;100.00;61570.13;5003676;28;20381;-62
2022/07/09 05:47:36;;;;;;;;;;;;;;;-147.11;100.00;61570.13;5004113;28;20482;-62
2022/07/09 05:50:02;;;;;;;;;;;;;;;-147.11;100.00;61570.13;5001086;28;19926;-56
2022/07/09 05:52:27;;;;;;;;;;;;;;;-147.11;100.00;61570.13;5001296;28;19960;-61
2022/07/09 05:54:53;;;;;;;;;;;;;;;-147.11;100.00;61570.13;4984572;28;19932;-62
2022/07/09 05:57:18;;;;;;;;;;;;;;;-147.11;100.00;61570.13;5001071;28;19917;-58
2022/07/09 05:59:44;;;;;;;;;;;;;;;-147.11;100.00;61570.13;4986003;28;19925;-59
2022/07/09 06:02:09;;;;;;;;;;;;;;;-147.11;100.00;61570.13;4998476;28;19972;-58
2022/07/09 06:04:34;;;;;;;;;;;;;;;-147.11;100.00;61570.13;4995845;28;19930;-60
2022/07/09 06:06:59;;;;;;;;;;;;;;;-147.11;100.00;61570.13;5001552;28;19921;-61
2022/07/09 06:09:25;;;;;;;;;;;;;;;-147.11;100.00;61570.13;4999419;28;20862;-61
2022/07/09 06:11:50;;;;;;;;;;;;;;;-147.11;100.00;61570.13;4995449;28;19964;-61
2022/07/09 06:14:15;;;;;;;;;;;;;;;-147.11;100.00;61570.13;5001241;28;20008;-57
2022/07/09 06:16:41;;;;;;;;;;;;;;;-147.11;100.00;61570.13;5001003;28;20296;-57
2022/07/09 06:19:06;;;;;;;;;;;;;;;-147.11;100.00;61570.13;4998275;28;19921;-60
2022/07/09 06:21:31;;;;;;;;;;;;;;;-147.11;100.00;61570.13;5000373;28;19964;-60
2022/07/09 06:23:56;;;;;;;;;;;;;;;-147.11;100.00;61570.13;4995475;28;19917;-60
2022/07/09 06:26:22;;;;;;;;;;;;;;;-147.11;100.00;61570.13;4996731;28;19940;-61
2022/07/09 06:28:48;;;;;;;;;;;;;;;-147.11;100.00;61570.13;4993521;28;20011;-58
2022/07/09 06:31:13;;;;;;;;;;;;;;;-147.11;100.00;61570.13;4999528;28;20376;-58
2022/07/09 06:33:39;;;;;;;;;;;;;;;-147.11;100.00;61570.13;5001156;28;19913;-61
2022/07/09 06:36:04;;;;;;;;;;;;;;;-147.11;100.00;61570.13;4999306;28;19953;-61
2022/07/09 06:38:29;;;;;;;;;;;;;;;-147.11;100.00;61570.13;5002129;28;20005;-60
2022/07/09 06:40:56;;;;;;;;;;;;;;;-147.11;100.00;61570.13;4997037;28;19995;-61
2022/07/09 06:43:21;;;;;;;;;;;;;;;-147.11;100.00;61570.13;4990536;28;19917;-60
2022/07/09 06:45:46;;;;;;;;;;;;;;;-147.11;100.00;61570.13;4993718;28;20307;-57
2022/07/09 06:48:12;;;;;;;;;;;;;;;-147.11;100.00;61570.13;4994120;28;19936;-57
2022/07/09 06:50:37;;;;;;;;;;;;;;;-147.11;100.00;61570.13;4995174;28;19995;-60
2022/07/09 06:53:02;;;;;;;;;;;;;;;-147.11;100.00;61570.13;5005181;28;20044;-57
2022/07/09 06:55:28;;;;;;;;;;;;;;;-147.11;100.00;61570.13;4998510;28;20403;-61
2022/07/09 06:57:54;;;;;;;;;;;;;;;-147.11;100.00;61570.13;4999573;28;19925;-58
2022/07/09 07:00:19;;;;;;;;;;;;;;;-147.11;100.00;61570.13;5001152;28;19920;-60
2022/07/09 07:02:44;;;;;;;;;;;;;;;-147.11;100.00;61570.13;5002779;28;19918;-58
2022/07/09 07:05:10;;;;;;;;;;;;;;;-147.11;100.00;61570.13;4993784;28;19921;-62
2022/07/09 07:07:35;;;;;;;;;;;;;;;-147.11;100.00;61570.13;4998573;28;20001;-62
2022/07/09 07:10:00;;;;;;;;;;;;;;;-147.11;100.00;61570.13;4996521;28;19921;-60
2022/07/09 07:12:26;;;;;;;;;;;;;;;-147.11;100.00;61570.13;4996429;28;19918;-60
2022/07/09 07:14:51;;;;;;;;;;;;;;;-147.11;100.00;61570.13;4998068;28;19917;-60
2022/07/09 07:17:16;;;;;;;;;;;;;;;-147.11;100.00;61570.13;4996112;28;19924;-57
2022/07/09 07:19:42;;;;;;;;;;;;;;;-147.11;100.00;61570.13;5002929;28;19968;-59
2022/07/09 07:22:07;;;;;;;;;;;;;;;-147.11;100.00;61570.13;4996632;28;19914;-58
2022/07/09 07:24:33;;;;;;;;;;;;;;;-147.11;100.00;61570.13;4995364;28;19925;-60
2022/07/09 07:26:58;;;;;;;;;;;;;;;-147.11;100.00;61570.13;4995312;28;19922;-59
2022/07/09 07:29:24;;;;;;;;;;;;;;;-147.11;100.00;61570.13;4997676;28;20349;-58
2022/07/09 07:31:49;;;;;;;;;;;;;;;-147.11;100.00;61570.13;4992876;28;19924;-61
2022/07/09 07:34:15;;;;;;;;;;;;;;;-147.11;100.00;61570.13;4995908;28;19921;-61
2022/07/09 07:36:40;;;;;;;;;;;;;;;-147.11;100.00;61570.13;5001918;28;19932;-57
2022/07/09 07:39:05;;;;;;;;;;;;;;;-147.11;100.00;61570.13;4981067;28;19913;-58
2022/07/09 07:41:31;;;;;;;;;;;;;;;-147.11;100.00;61570.13;4992106;28;19963;-61
2022/07/09 07:43:56;;;;;;;;;;;;;;;-147.11;100.00;61570.13;4991162;28;19921;-62
2022/07/09 07:46:21;;;;;;;;;;;;;;;-147.11;100.00;61570.13;4999256;28;20384;-60
2022/07/09 07:48:47;;;;;;;;;;;;;;;-147.11;100.00;61570.13;5001314;28;19940;-61
2022/07/09 07:51:12;;;;;;;;;;;;;;;-147.11;100.00;61570.13;4998461;28;20017;-59
2022/07/09 07:53:37;;;;;;;;;;;;;;;-147.11;100.00;61570.13;5001301;28;19917;-60
2022/07/09 07:56:03;;;;;;;;;;;;;;;-147.11;100.00;61570.13;5005981;28;19971;-59
2022/07/09 07:58:29;;;;;;;;;;;;;;;-147.11;100.00;61570.13;5000994;28;19955;-58
2022/07/09 08:00:54;;;;;;;;;;;;;;;-147.11;100.00;61570.13;5003249;28;20351;-61
2022/07/09 08:03:20;;;;;;;;;;;;;;;-147.11;100.00;61570.13;5002998;28;20345;-62
2022/07/09 08:05:45;;;;;;;;;;;;;;;-147.11;100.00;61570.13;4997502;28;19922;-60
2022/07/09 08:08:10;;;;;;;;;;;;;;;-147.11;100.00;61570.13;4998716;28;19921;-60
2022/07/09 08:10:35;;;;;;;;;;;;;;;-147.11;100.00;61570.13;5000833;28;19956;-61
2022/07/09 08:13:01;;;;;;;;;;;;;;;-147.11;100.00;61570.13;4998217;28;19917;-60
2022/07/09 08:15:26;;;;;;;;;;;;;;;-147.11;100.00;61570.13;4993722;28;20360;-60
2022/07/09 08:17:51;;;;;;;;;;;;;;;-147.11;100.00;61570.13;4998865;28;20374;-60
2022/07/09 08:20:17;;;;;;;;;;;;;;;-147.11;100.00;61570.13;5027278;22;20063;-57
2022/07/09 08:22:42;;;;;;;;;;;;;;;-147.11;100.00;61570.13;5007215;28;19925;-55
2022/07/09 08:25:07;;;;;;;;;;;;;;;-147.11;100.00;61570.13;5004881;28;19917;-52
2022/07/09 08:27:33;;;;;;;;;;;;;;;-147.11;100.00;61570.13;5008430;28;19925;-56
2022/07/09 08:29:58;;;;;;;;;;;;;;;-147.11;100.00;61570.13;5005338;28;19920;-56
2022/07/09 08:32:24;;;;;;;;;;;;;;;-147.11;100.00;61570.13;5003479;28;19920;-53
2022/07/09 08:34:49;;;;;;;;;;;;;;;-147.11;100.00;61570.13;4999045;28;19918;-57
2022/07/09 08:37:14;;;;;;;;;;;;;;;-147.11;100.00;61570.13;5006750;28;19916;-54
2022/07/09 08:39:39;;;;;;;;;;;;;;;-147.11;100.00;61570.13;5002108;28;19932;-52
2022/07/09 08:42:07;;;;;;;;;;;;;;;-147.11;100.00;61570.13;5003930;28;19920;-55
2022/07/09 08:44:35;;;;;;;;;;;;;;;-147.11;100.00;61570.13;5003790;28;20040;-55
2022/07/09 08:47:01;;;;;;;;;;;;;;;-147.11;100.00;61570.13;4999415;28;19917;-58
2022/07/09 08:49:27;;;;;;;;;;;;;;;-147.11;100.00;61570.13;5006025;28;19921;-59
2022/07/09 08:51:54;;;;;;;;;;;;;;;-147.11;100.00;61570.13;5003528;28;20575;-53
2022/07/09 08:54:20;;;;;;;;;;;;;;;-147.11;100.00;61570.13;5001056;28;19975;-60
2022/07/09 08:56:45;;;;;;;;;;;;;;;-147.11;100.00;61570.13;5001058;28;20603;-55
2022/07/09 08:59:10;;;;;;;;;;;;;;;-147.11;100.00;61570.13;5000217;28;20313;-52
2022/07/09 09:01:36;;;;;;;;;;;;;;;-147.11;100.00;61570.13;4998972;28;19918;-56
2022/07/09 09:04:01;;;;;;;;;;;;;;;-147.11;100.00;61570.13;4981946;28;19960;-57
2022/07/09 09:06:27;;;;;;;;;;;;;;;-147.11;100.00;61570.13;5006564;28;19918;-58
2022/07/09 09:08:55;;;;;;;;;;;;;;;-147.11;100.00;61570.13;5008301;28;19917;-58
2022/07/09 09:11:25;;;;;;;;;;;;;;;-147.11;100.00;61570.13;5008823;28;19917;-59
2022/07/09 09:13:50;;;;;;;;;;;;;;;-147.11;100.00;61570.13;5004599;28;19956;-58
2022/07/09 09:16:17;;;;;;;;;;;;;;;-147.11;100.00;61570.13;5005170;28;20013;-58
2022/07/09 09:18:49;;;;;;;;;;;;;;;-147.11;100.00;61570.13;5011871;28;19913;-56
2022/07/09 09:21:16;;;;;;;;;;;;;;;-147.11;100.00;61570.13;5010958;28;19913;-56
2022/07/09 09:23:49;;;;;;;;;;;;;;;-147.11;100.00;61570.13;5011789;28;19945;-52
2022/07/09 09:26:16;;;;;;;;;;;;;;;-147.11;100.00;61570.13;5008445;28;19928;-53
2022/07/09 09:28:49;;;;;;;;;;;;;;;-147.11;100.00;61570.13;5010033;28;19994;-51
2022/07/09 09:31:22;;;;;;;;;;;;;;;-147.11;100.00;61570.13;5006311;28;19917;-52
2022/07/09 09:33:47;;;;;;;;;;;;;;;-147.11;100.00;61570.13;5005580;28;20337;-51
2022/07/09 09:36:26;;;;;;;;;;;;;;;-147.11;100.00;61570.13;5011924;28;20415;-53
2022/07/09 09:38:54;;;;;;;;;;;;;;;-147.11;100.00;61570.13;5010681;28;19913;-54
2022/07/09 09:41:24;;;;;;;;;;;;;;;-147.11;100.00;61570.13;5010961;28;19924;-58
2022/07/09 09:43:51;;;;;;;;;;;;;;;-147.11;100.00;61570.13;5008292;28;19967;-58
2022/07/09 09:46:17;;;;;;;;;;;;;;;-147.11;100.00;61570.13;4998365;28;19921;-52
2022/07/09 09:48:43;;;;;;;;;;;;;;;-147.11;100.00;61570.13;5009058;28;19952;-57
2022/07/09 09:51:10;;;;;;;;;;;;;;;-147.11;100.00;61570.13;5001593;28;19949;-55
2022/07/09 09:53:38;;;;;;;;;;;;;;;-147.11;100.00;61570.13;4999970;28;20218;-55
2022/07/09 09:56:03;;;;;;;;;;;;;;;-147.11;100.00;61570.13;5010116;28;19917;-56
2022/07/09 09:58:29;;;;;;;;;;;;;;;-147.11;100.00;61570.13;5009920;28;19971;-52
2022/07/09 10:00:54;;;;;;;;;;;;;;;-147.11;100.00;61570.13;5007317;28;20395;-51
2022/07/09 10:03:20;;;;;;;;;;;;;;;-147.11;100.00;61570.13;5006645;28;19932;-53
2022/07/09 10:05:47;;;;;;;;;;;;;;;-147.11;100.00;61570.13;5011576;28;19983;-52
2022/07/09 10:08:12;;;;;;;;;;;;;;;-147.11;100.00;61570.13;5010772;28;20056;-52
2022/07/09 10:10:38;;;;;;;;;;;;;;;-147.11;100.00;61570.13;5006189;28;20000;-55
2022/07/09 10:13:03;;;;;;;;;;;;;;;-147.11;100.00;61570.13;5009334;28;19917;-52
2022/07/09 10:15:31;;;;;;;;;;;;;;;-147.11;100.00;61570.13;5008342;28;20011;-53
2022/07/09 10:17:56;;;;;;;;;;;;;;;-147.11;100.00;61570.13;5004032;28;20380;-55
2022/07/09 10:20:33;;;;;;;;;;;;;;;-147.11;100.00;61570.13;5005635;28;19917;-55
2022/07/09 10:22:59;;;;;;;;;;;;;;;-147.11;100.00;61570.13;5006172;28;19959;-56
2022/07/09 10:25:31;;;;;;;;;;;;;;;-147.11;100.00;61570.13;5010529;28;19960;-56
2022/07/09 10:27:56;;;;;;;;;;;;;;;-147.11;100.00;61570.13;5002866;28;19937;-56
2022/07/09 10:30:23;;;;;;;;;;;;;;;-147.11;100.00;61570.13;5007858;28;19913;-56
2022/07/09 10:33:01;;;;;;;;;;;;;;;-147.11;100.00;61570.13;5009387;28;19949;-53
2022/07/09 10:35:26;;;;;;;;;;;;;;;-147.11;100.00;61570.13;4997539;28;19922;-56
2022/07/09 10:37:53;;;;;;;;;;;;;;;-147.11;100.00;61570.13;5005947;28;19920;-56
2022/07/09 10:40:28;;;;;;;;;;;;;;;-147.11;100.00;61570.13;5004362;28;19959;-58
2022/07/09 10:43:00;;;;;;;;;;;;;;;-147.11;100.00;61570.13;5010357;28;19931;-56
2022/07/09 10:45:27;;;;;;;;;;;;;;;-147.11;100.00;61570.13;5005512;28;19926;-60
2022/07/09 10:47:54;;;;;;;;;;;;;;;-147.11;100.00;61570.13;5001000;28;20436;-58
2022/07/09 10:50:19;;;;;;;;;;;;;;;-147.11;100.00;61570.13;5009318;28;20391;-58
2022/07/09 10:52:45;;;;;;;;;;;;;;;-147.11;100.00;61570.13;5007150;28;19925;-58
2022/07/09 10:55:10;;;;;;;;;;;;;;;-147.11;100.00;61570.13;5009438;28;19921;-57
2022/07/09 10:57:36;;;;;;;;;;;;;;;-147.11;100.00;61570.13;5004158;28;19926;-60
2022/07/09 11:00:01;;;;;;;;;;;;;;;-147.11;100.00;61570.13;5002873;28;19917;-56
2022/07/09 11:02:27;;;;;;;;;;;;;;;-147.11;100.00;61570.13;4997609;28;19921;-57
2022/07/09 11:04:52;;;;;;;;;;;;;;;-147.11;100.00;61570.13;5001667;28;19925;-58
2022/07/09 11:07:24;;;;;;;;;;;;;;;-147.11;100.00;61570.13;4998622;28;19963;-57
2022/07/09 11:09:50;;;;;;;;;;;;;;;-147.11;100.00;61570.13;4998454;28;19931;-61
2022/07/09 11:12:19;;;;;;;;;;;;;;;-147.11;100.00;61570.13;5005603;28;19932;-54
2022/07/09 11:14:49;;;;;;;;;;;;;;;-147.11;100.00;61570.13;5003481;28;19920;-57
2022/07/09 11:17:15;;;;;;;;;;;;;;;-147.11;100.00;61570.13;4999997;28;19918;-57
2022/07/09 11:19:41;;;;;;;;;;;;;;;-147.11;100.00;61570.13;5003140;28;20003;-57
2022/07/09 11:22:06;;;;;;;;;;;;;;;-147.11;100.00;61570.13;5008475;28;19957;-60
2022/07/09 11:24:32;;;;;;;;;;;;;;;-147.11;100.00;61570.13;5004394;28;20616;-58
2022/07/09 11:27:04;;;;;;;;;;;;;;;-147.11;100.00;61570.13;5004256;28;19936;-57
2022/07/09 11:29:30;;;;;;;;;;;;;;;-147.11;100.00;61570.13;5005151;28;19917;-53
2022/07/09 11:31:55;;;;;;;;;;;;;;;-147.11;100.00;61570.13;5007767;28;20008;-54
2022/07/09 11:34:22;;;;;;;;;;;;;;;-147.11;100.00;61570.13;5005107;28;19956;-54
2022/07/09 11:36:50;;;;;;;;;;;;;;;-147.11;100.00;61570.13;5006944;28;19917;-53
2022/07/09 11:39:28;;;;;;;;;;;;;;;-147.11;100.00;61570.13;4992432;28;19913;-52
2022/07/09 11:41:55;;;;;;;;;;;;;;;-147.11;100.00;61570.13;5005261;28;19913;-52
2022/07/09 11:44:21;;;;;;;;;;;;;;;-147.11;100.00;61570.13;5009783;28;20004;-52
2022/07/09 11:46:58;;;;;;;;;;;;;;;-147.11;100.00;61570.13;5011835;28;19917;-53
2022/07/09 11:49:31;;;;;;;;;;;;;;;-147.11;100.00;61570.13;5005672;28;20037;-55
2022/07/09 11:51:56;;;;;;;;;;;;;;;-147.11;100.00;61570.13;4997502;28;19928;-55
2022/07/09 11:54:25;;;;;;;;;;;;;;;-147.11;100.00;61570.13;5002077;28;19921;-54
2022/07/09 11:56:51;;;;;;;;;;;;;;;-147.11;100.00;61570.13;4999690;28;20376;-56
2022/07/09 11:59:25;;;;;;;;;;;;;;;-147.11;100.00;61570.13;4992536;28;19925;-56
2022/07/09 12:01:50;;;;;;;;;;;;;;;-147.11;100.00;61570.13;4999194;28;19999;-57
2022/07/09 12:04:22;;;;;;;;;;;;;;;-147.11;100.00;61570.13;5001577;28;20048;-55
2022/07/09 12:06:50;;;;;;;;;;;;;;;-147.11;100.00;61570.13;5002154;28;19921;-55
2022/07/09 12:09:26;;;;;;;;;;;;;;;-147.11;100.00;61570.13;5000832;28;19914;-55
2022/07/09 12:11:52;;;;;;;;;;;;;;;-147.11;100.00;61570.13;5000026;28;19913;-57